sensor_id;sensor_type;location;lat;lon;timestamp;P1;P2;P0
73305;PMS5003;61530;51.158;0.880;2022-11-20T00:01:05;37;37;20
73305;PMS5003;61530;51.158;0.880;2022-11-20T00:02:05;31;30;20
73305;PMS5003;61530;51.158;0.880;2022-11-20T00:03:10;31;31;20
73305;PMS5003;61530;51.158;0.880;2022-11-20T00:04:10;45;40;21
73305;PMS5003;61530;51.158;0.880;2022-11-20T00:05:16;36;33;21
73305;PMS5003;61530;51.158;0.880;2022-11-20T00:06:17;46;36;20
73305;PMS5003;61530;51.158;0.880;2022-11-20T00:07:22;33;29;21
73305;PMS5003;61530;51.158;0.880;2022-11-20T00:08:23;38;35;23
73305;PMS5003;61530;51.158;0.880;2022-11-20T00:09:28;37;32;21
73305;PMS5003;61530;51.158;0.880;2022-11-20T00:10:28;40;38;22
73305;PMS5003;61530;51.158;0.880;2022-11-20T00:11:34;32;32;20
73305;PMS5003;61530;51.158;0.880;2022-11-20T00:12:34;37;35;20
73305;PMS5003;61530;51.158;0.880;2022-11-20T00:13:40;32;32;21
73305;PMS5003;61530;51.158;0.880;2022-11-20T00:14:40;33;33;19
73305;PMS5003;61530;51.158;0.880;2022-11-20T00:15:40;35;32;21
73305;PMS5003;61530;51.158;0.880;2022-11-20T00:16:46;44;38;20
73305;PMS5003;61530;51.158;0.880;2022-11-20T00:17:46;38;35;22
73305;PMS5003;61530;51.158;0.880;2022-11-20T00:18:52;38;34;22
73305;PMS5003;61530;51.158;0.880;2022-11-20T00:19:52;44;41;22
73305;PMS5003;61530;51.158;0.880;2022-11-20T00:21:00;37;35;20
73305;PMS5003;61530;51.158;0.880;2022-11-20T00:21:58;35;33;23
73305;PMS5003;61530;51.158;0.880;2022-11-20T00:23:04;36;33;21
73305;PMS5003;61530;51.158;0.880;2022-11-20T00:24:05;29;28;20
73305;PMS5003;61530;51.158;0.880;2022-11-20T00:25:10;32;32;22
73305;PMS5003;61530;51.158;0.880;2022-11-20T00:26:11;39;36;22
73305;PMS5003;61530;51.158;0.880;2022-11-20T00:27:16;36;32;22
73305;PMS5003;61530;51.158;0.880;2022-11-20T00:28:17;32;30;21
73305;PMS5003;61530;51.158;0.880;2022-11-20T00:29:22;36;35;23
73305;PMS5003;61530;51.158;0.880;2022-11-20T00:30:22;41;40;23
73305;PMS5003;61530;51.158;0.880;2022-11-20T00:31:28;36;32;20
73305;PMS5003;61530;51.158;0.880;2022-11-20T00:32:29;40;38;23
73305;PMS5003;61530;51.158;0.880;2022-11-20T00:33:29;40;36;22
73305;PMS5003;61530;51.158;0.880;2022-11-20T00:34:34;44;35;23
73305;PMS5003;61530;51.158;0.880;2022-11-20T00:35:34;38;37;21
73305;PMS5003;61530;51.158;0.880;2022-11-20T00:36:40;28;26;20
73305;PMS5003;61530;51.158;0.880;2022-11-20T00:37:46;34;31;22
73305;PMS5003;61530;51.158;0.880;2022-11-20T00:38:46;37;32;22
73305;PMS5003;61530;51.158;0.880;2022-11-20T00:39:46;36;36;22
73305;PMS5003;61530;51.158;0.880;2022-11-20T00:40:54;36;32;21
73305;PMS5003;61530;51.158;0.880;2022-11-20T00:41:52;42;36;22
73305;PMS5003;61530;51.158;0.880;2022-11-20T00:42:58;40;37;26
73305;PMS5003;61530;51.158;0.880;2022-11-20T00:43:58;40;37;22
73305;PMS5003;61530;51.158;0.880;2022-11-20T00:45:04;43;39;22
73305;PMS5003;61530;51.158;0.880;2022-11-20T00:46:05;29;28;21
73305;PMS5003;61530;51.158;0.880;2022-11-20T00:47:10;36;31;21
73305;PMS5003;61530;51.158;0.880;2022-11-20T00:48:10;44;39;23
73305;PMS5003;61530;51.158;0.880;2022-11-20T00:49:16;36;36;19
73305;PMS5003;61530;51.158;0.880;2022-11-20T00:50:16;43;36;22
73305;PMS5003;61530;51.158;0.880;2022-11-20T00:51:22;40;38;22
73305;PMS5003;61530;51.158;0.880;2022-11-20T00:52:22;42;37;22
73305;PMS5003;61530;51.158;0.880;2022-11-20T00:53:22;28;28;20
73305;PMS5003;61530;51.158;0.880;2022-11-20T00:54:28;37;31;21
73305;PMS5003;61530;51.158;0.880;2022-11-20T00:55:29;30;29;21
73305;PMS5003;61530;51.158;0.880;2022-11-20T00:56:34;42;34;20
73305;PMS5003;61530;51.158;0.880;2022-11-20T00:57:34;38;35;23
73305;PMS5003;61530;51.158;0.880;2022-11-20T00:58:41;27;27;18
73305;PMS5003;61530;51.158;0.880;2022-11-20T00:59:41;41;35;20
73305;PMS5003;61530;51.158;0.880;2022-11-20T01:00:46;32;29;21
73305;PMS5003;61530;51.158;0.880;2022-11-20T01:01:46;45;42;23
73305;PMS5003;61530;51.158;0.880;2022-11-20T01:02:52;43;38;21
73305;PMS5003;61530;51.158;0.880;2022-11-20T01:03:53;40;36;22
73305;PMS5003;61530;51.158;0.880;2022-11-20T01:04:58;40;38;23
73305;PMS5003;61530;51.158;0.880;2022-11-20T01:05:59;34;30;20
73305;PMS5003;61530;51.158;0.880;2022-11-20T01:07:04;40;32;23
73305;PMS5003;61530;51.158;0.880;2022-11-20T01:08:10;36;31;20
73305;PMS5003;61530;51.158;0.880;2022-11-20T01:09:16;45;44;26
73305;PMS5003;61530;51.158;0.880;2022-11-20T01:10:17;34;32;23
73305;PMS5003;61530;51.158;0.880;2022-11-20T01:11:22;38;37;22
73305;PMS5003;61530;51.158;0.880;2022-11-20T01:12:22;46;39;26
73305;PMS5003;61530;51.158;0.880;2022-11-20T01:13:29;40;37;21
73305;PMS5003;61530;51.158;0.880;2022-11-20T01:14:34;34;30;20
73305;PMS5003;61530;51.158;0.880;2022-11-20T01:15:40;34;32;21
73305;PMS5003;61530;51.158;0.880;2022-11-20T01:16:42;40;33;20
73305;PMS5003;61530;51.158;0.880;2022-11-20T01:17:46;42;40;22
73305;PMS5003;61530;51.158;0.880;2022-11-20T01:18:47;41;37;22
73305;PMS5003;61530;51.158;0.880;2022-11-20T01:19:52;39;37;21
73305;PMS5003;61530;51.158;0.880;2022-11-20T01:21:00;40;36;25
73305;PMS5003;61530;51.158;0.880;2022-11-20T01:22:04;38;36;21
73305;PMS5003;61530;51.158;0.880;2022-11-20T01:23:04;38;35;26
73305;PMS5003;61530;51.158;0.880;2022-11-20T01:24:11;38;37;22
73305;PMS5003;61530;51.158;0.880;2022-11-20T01:25:10;43;37;22
73305;PMS5003;61530;51.158;0.880;2022-11-20T01:26:18;43;38;24
73305;PMS5003;61530;51.158;0.880;2022-11-20T01:27:22;36;32;21
73305;PMS5003;61530;51.158;0.880;2022-11-20T01:28:24;39;39;24
73305;PMS5003;61530;51.158;0.880;2022-11-20T01:29:24;43;39;23
73305;PMS5003;61530;51.158;0.880;2022-11-20T01:30:30;49;46;26
73305;PMS5003;61530;51.158;0.880;2022-11-20T01:31:31;43;40;23
73305;PMS5003;61530;51.158;0.880;2022-11-20T01:32:36;42;39;25
73305;PMS5003;61530;51.158;0.880;2022-11-20T01:33:36;38;38;24
73305;PMS5003;61530;51.158;0.880;2022-11-20T01:34:36;37;32;21
73305;PMS5003;61530;51.158;0.880;2022-11-20T01:35:42;40;38;26
73305;PMS5003;61530;51.158;0.880;2022-11-20T01:36:43;44;39;23
73305;PMS5003;61530;51.158;0.880;2022-11-20T01:37:49;43;43;26
73305;PMS5003;61530;51.158;0.880;2022-11-20T01:38:50;45;39;23
73305;PMS5003;61530;51.158;0.880;2022-11-20T01:39:54;47;40;23
73305;PMS5003;61530;51.158;0.880;2022-11-20T01:40:55;45;43;22
73305;PMS5003;61530;51.158;0.880;2022-11-20T01:42:00;40;39;24
73305;PMS5003;61530;51.158;0.880;2022-11-20T01:43:06;37;37;24
73305;PMS5003;61530;51.158;0.880;2022-11-20T01:44:06;39;34;22
73305;PMS5003;61530;51.158;0.880;2022-11-20T01:45:42;46;40;24
73305;PMS5003;61530;51.158;0.880;2022-11-20T01:46:13;39;34;21
73305;PMS5003;61530;51.158;0.880;2022-11-20T01:47:12;44;38;26
73305;PMS5003;61530;51.158;0.880;2022-11-20T01:48:18;35;33;21
73305;PMS5003;61530;51.158;0.880;2022-11-20T01:49:19;43;39;26
73305;PMS5003;61530;51.158;0.880;2022-11-20T01:50:24;45;37;23
73305;PMS5003;61530;51.158;0.880;2022-11-20T01:51:25;42;37;26
73305;PMS5003;61530;51.158;0.880;2022-11-20T01:52:25;42;34;25
73305;PMS5003;61530;51.158;0.880;2022-11-20T01:53:25;44;36;23
73305;PMS5003;61530;51.158;0.880;2022-11-20T01:54:31;39;39;23
73305;PMS5003;61530;51.158;0.880;2022-11-20T01:55:37;46;45;23
73305;PMS5003;61530;51.158;0.880;2022-11-20T01:56:42;37;35;22
73305;PMS5003;61530;51.158;0.880;2022-11-20T01:57:42;38;35;23
73305;PMS5003;61530;51.158;0.880;2022-11-20T01:58:43;47;42;24
73305;PMS5003;61530;51.158;0.880;2022-11-20T01:59:49;45;37;26
73305;PMS5003;61530;51.158;0.880;2022-11-20T02:00:48;43;42;23
73305;PMS5003;61530;51.158;0.880;2022-11-20T02:01:54;42;38;27
73305;PMS5003;61530;51.158;0.880;2022-11-20T02:02:55;49;45;26
73305;PMS5003;61530;51.158;0.880;2022-11-20T02:04:00;40;39;22
73305;PMS5003;61530;51.158;0.880;2022-11-20T02:05:04;44;42;27
73305;PMS5003;61530;51.158;0.880;2022-11-20T02:06:10;40;39;26
73305;PMS5003;61530;51.158;0.880;2022-11-20T02:07:08;51;45;24
73305;PMS5003;61530;51.158;0.880;2022-11-20T02:08:14;43;43;26
73305;PMS5003;61530;51.158;0.880;2022-11-20T02:09:14;42;39;27
73305;PMS5003;61530;51.158;0.880;2022-11-20T02:10:20;43;38;24
73305;PMS5003;61530;51.158;0.880;2022-11-20T02:11:20;51;43;24
73305;PMS5003;61530;51.158;0.880;2022-11-20T02:12:26;48;47;30
73305;PMS5003;61530;51.158;0.880;2022-11-20T02:13:26;48;43;27
73305;PMS5003;61530;51.158;0.880;2022-11-20T02:14:26;52;46;29
73305;PMS5003;61530;51.158;0.880;2022-11-20T02:15:32;45;42;26
73305;PMS5003;61530;51.158;0.880;2022-11-20T02:16:34;49;44;29
73305;PMS5003;61530;51.158;0.880;2022-11-20T02:17:38;47;43;26
73305;PMS5003;61530;51.158;0.880;2022-11-20T02:18:38;46;44;28
73305;PMS5003;61530;51.158;0.880;2022-11-20T02:19:44;47;41;27
73305;PMS5003;61530;51.158;0.880;2022-11-20T02:20:55;46;38;27
73305;PMS5003;61530;51.158;0.880;2022-11-20T02:21:59;46;40;26
73305;PMS5003;61530;51.158;0.880;2022-11-20T02:22:57;39;35;24
73305;PMS5003;61530;51.158;0.880;2022-11-20T02:24:04;49;42;26
73305;PMS5003;61530;51.158;0.880;2022-11-20T02:25:02;45;44;24
73305;PMS5003;61530;51.158;0.880;2022-11-20T02:26:09;40;38;24
73305;PMS5003;61530;51.158;0.880;2022-11-20T02:27:15;49;43;24
73305;PMS5003;61530;51.158;0.880;2022-11-20T02:28:20;52;46;29
73305;PMS5003;61530;51.158;0.880;2022-11-20T02:29:23;43;39;27
73305;PMS5003;61530;51.158;0.880;2022-11-20T02:30:26;43;38;27
73305;PMS5003;61530;51.158;0.880;2022-11-20T02:31:28;47;45;26
73305;PMS5003;61530;51.158;0.880;2022-11-20T02:32:35;48;45;28
73305;PMS5003;61530;51.158;0.880;2022-11-20T02:33:39;54;47;29
73305;PMS5003;61530;51.158;0.880;2022-11-20T02:34:40;47;42;24
73305;PMS5003;61530;51.158;0.880;2022-11-20T02:35:44;42;38;26
73305;PMS5003;61530;51.158;0.880;2022-11-20T02:36:46;37;37;25
73305;PMS5003;61530;51.158;0.880;2022-11-20T02:37:47;41;38;23
73305;PMS5003;61530;51.158;0.880;2022-11-20T02:38:52;35;34;25
73305;PMS5003;61530;51.158;0.880;2022-11-20T02:39:52;42;38;26
73305;PMS5003;61530;51.158;0.880;2022-11-20T02:40:58;44;39;27
73305;PMS5003;61530;51.158;0.880;2022-11-20T02:42:05;44;42;26
73305;PMS5003;61530;51.158;0.880;2022-11-20T02:43:10;54;49;26
73305;PMS5003;61530;51.158;0.880;2022-11-20T02:44:10;49;44;27
73305;PMS5003;61530;51.158;0.880;2022-11-20T02:45:16;46;44;28
73305;PMS5003;61530;51.158;0.880;2022-11-20T02:46:16;54;46;27
73305;PMS5003;61530;51.158;0.880;2022-11-20T02:47:22;45;43;29
73305;PMS5003;61530;51.158;0.880;2022-11-20T02:48:22;48;48;30
73305;PMS5003;61530;51.158;0.880;2022-11-20T02:49:28;54;48;26
73305;PMS5003;61530;51.158;0.880;2022-11-20T02:50:28;48;44;27
73305;PMS5003;61530;51.158;0.880;2022-11-20T02:51:34;42;42;29
73305;PMS5003;61530;51.158;0.880;2022-11-20T02:52:34;45;44;29
73305;PMS5003;61530;51.158;0.880;2022-11-20T02:53:40;47;45;27
73305;PMS5003;61530;51.158;0.880;2022-11-20T02:54:40;54;48;27
73305;PMS5003;61530;51.158;0.880;2022-11-20T02:55:40;53;47;29
73305;PMS5003;61530;51.158;0.880;2022-11-20T02:56:46;46;46;30
73305;PMS5003;61530;51.158;0.880;2022-11-20T02:57:47;51;40;24
73305;PMS5003;61530;51.158;0.880;2022-11-20T02:58:52;44;40;26
73305;PMS5003;61530;51.158;0.880;2022-11-20T02:59:52;51;46;26
73305;PMS5003;61530;51.158;0.880;2022-11-20T03:00:58;45;44;28
73305;PMS5003;61530;51.158;0.880;2022-11-20T03:01:58;39;37;24
73305;PMS5003;61530;51.158;0.880;2022-11-20T03:03:04;45;39;27
73305;PMS5003;61530;51.158;0.880;2022-11-20T03:04:04;43;42;28
73305;PMS5003;61530;51.158;0.880;2022-11-20T03:05:10;52;47;28
73305;PMS5003;61530;51.158;0.880;2022-11-20T03:06:10;44;39;26
73305;PMS5003;61530;51.158;0.880;2022-11-20T03:07:16;52;45;28
73305;PMS5003;61530;51.158;0.880;2022-11-20T03:08:16;52;45;27
73305;PMS5003;61530;51.158;0.880;2022-11-20T03:09:22;43;37;27
73305;PMS5003;61530;51.158;0.880;2022-11-20T03:10:28;48;43;26
73305;PMS5003;61530;51.158;0.880;2022-11-20T03:11:34;48;43;27
73305;PMS5003;61530;51.158;0.880;2022-11-20T03:12:34;54;49;29
73305;PMS5003;61530;51.158;0.880;2022-11-20T03:13:40;49;47;29
73305;PMS5003;61530;51.158;0.880;2022-11-20T03:14:40;48;46;27
73305;PMS5003;61530;51.158;0.880;2022-11-20T03:15:46;37;36;23
73305;PMS5003;61530;51.158;0.880;2022-11-20T03:16:52;49;45;27
73305;PMS5003;61530;51.158;0.880;2022-11-20T03:17:58;47;44;27
73305;PMS5003;61530;51.158;0.880;2022-11-20T03:18:59;57;48;27
73305;PMS5003;61530;51.158;0.880;2022-11-20T03:20:04;48;45;29
73305;PMS5003;61530;51.158;0.880;2022-11-20T03:21:04;40;38;26
73305;PMS5003;61530;51.158;0.880;2022-11-20T03:22:10;50;48;26
73305;PMS5003;61530;51.158;0.880;2022-11-20T03:23:16;45;40;24
73305;PMS5003;61530;51.158;0.880;2022-11-20T03:24:22;45;44;27
73305;PMS5003;61530;51.158;0.880;2022-11-20T03:25:22;42;38;26
73305;PMS5003;61530;51.158;0.880;2022-11-20T03:26:28;38;36;26
73305;PMS5003;61530;51.158;0.880;2022-11-20T03:27:31;40;38;26
73305;PMS5003;61530;51.158;0.880;2022-11-20T03:28:34;46;40;27
73305;PMS5003;61530;51.158;0.880;2022-11-20T03:29:40;42;42;27
73305;PMS5003;61530;51.158;0.880;2022-11-20T03:30:46;46;41;24
73305;PMS5003;61530;51.158;0.880;2022-11-20T03:31:46;48;39;24
73305;PMS5003;61530;51.158;0.880;2022-11-20T03:32:52;45;42;26
73305;PMS5003;61530;51.158;0.880;2022-11-20T03:33:52;44;43;30
73305;PMS5003;61530;51.158;0.880;2022-11-20T03:34:58;40;38;24
73305;PMS5003;61530;51.158;0.880;2022-11-20T03:36:05;49;45;27
73305;PMS5003;61530;51.158;0.880;2022-11-20T03:37:10;48;44;26
73305;PMS5003;61530;51.158;0.880;2022-11-20T03:38:10;40;39;27
73305;PMS5003;61530;51.158;0.880;2022-11-20T03:39:16;50;47;29
73305;PMS5003;61530;51.158;0.880;2022-11-20T03:40:16;48;45;29
73305;PMS5003;61530;51.158;0.880;2022-11-20T03:41:23;52;46;28
73305;PMS5003;61530;51.158;0.880;2022-11-20T03:42:28;50;46;32
73305;PMS5003;61530;51.158;0.880;2022-11-20T03:43:34;48;44;28
73305;PMS5003;61530;51.158;0.880;2022-11-20T03:44:34;52;49;28
73305;PMS5003;61530;51.158;0.880;2022-11-20T03:45:40;50;41;28
73305;PMS5003;61530;51.158;0.880;2022-11-20T03:46:40;48;41;27
73305;PMS5003;61530;51.158;0.880;2022-11-20T03:47:46;53;44;29
73305;PMS5003;61530;51.158;0.880;2022-11-20T03:48:52;41;40;27
73305;PMS5003;61530;51.158;0.880;2022-11-20T03:49:58;48;47;27
73305;PMS5003;61530;51.158;0.880;2022-11-20T03:51:06;55;48;27
73305;PMS5003;61530;51.158;0.880;2022-11-20T03:52:04;45;42;25
73305;PMS5003;61530;51.158;0.880;2022-11-20T03:53:04;44;39;23
73305;PMS5003;61530;51.158;0.880;2022-11-20T03:54:10;43;41;28
73305;PMS5003;61530;51.158;0.880;2022-11-20T03:55:16;48;45;26
73305;PMS5003;61530;51.158;0.880;2022-11-20T03:56:23;47;46;26
73305;PMS5003;61530;51.158;0.880;2022-11-20T03:57:23;55;49;28
73305;PMS5003;61530;51.158;0.880;2022-11-20T03:58:28;53;47;27
73305;PMS5003;61530;51.158;0.880;2022-11-20T03:59:28;44;38;26
73305;PMS5003;61530;51.158;0.880;2022-11-20T04:00:34;39;35;22
73305;PMS5003;61530;51.158;0.880;2022-11-20T04:01:40;49;46;26
73305;PMS5003;61530;51.158;0.880;2022-11-20T04:02:46;47;41;27
73305;PMS5003;61530;51.158;0.880;2022-11-20T04:03:46;45;43;27
73305;PMS5003;61530;51.158;0.880;2022-11-20T04:04:52;39;39;28
73305;PMS5003;61530;51.158;0.880;2022-11-20T04:05:52;50;40;28
73305;PMS5003;61530;51.158;0.880;2022-11-20T04:06:58;44;42;29
73305;PMS5003;61530;51.158;0.880;2022-11-20T04:08:04;47;41;23
73305;PMS5003;61530;51.158;0.880;2022-11-20T04:09:10;38;36;26
73305;PMS5003;61530;51.158;0.880;2022-11-20T04:10:11;46;43;28
73305;PMS5003;61530;51.158;0.880;2022-11-20T04:11:16;49;48;25
73305;PMS5003;61530;51.158;0.880;2022-11-20T04:12:16;45;41;27
73305;PMS5003;61530;51.158;0.880;2022-11-20T04:13:22;46;37;24
73305;PMS5003;61530;51.158;0.880;2022-11-20T04:14:28;38;37;24
73305;PMS5003;61530;51.158;0.880;2022-11-20T04:15:34;40;38;27
73305;PMS5003;61530;51.158;0.880;2022-11-20T04:16:35;42;41;25
73305;PMS5003;61530;51.158;0.880;2022-11-20T04:17:40;46;41;27
73305;PMS5003;61530;51.158;0.880;2022-11-20T04:18:40;39;33;24
73305;PMS5003;61530;51.158;0.880;2022-11-20T04:19:46;41;41;27
73305;PMS5003;61530;51.158;0.880;2022-11-20T04:20:52;39;37;28
73305;PMS5003;61530;51.158;0.880;2022-11-20T04:21:58;42;40;23
73305;PMS5003;61530;51.158;0.880;2022-11-20T04:22:58;40;40;23
73305;PMS5003;61530;51.158;0.880;2022-11-20T04:24:04;43;40;27
73305;PMS5003;61530;51.158;0.880;2022-11-20T04:25:04;43;40;23
73305;PMS5003;61530;51.158;0.880;2022-11-20T04:26:11;32;31;22
73305;PMS5003;61530;51.158;0.880;2022-11-20T04:27:16;37;33;21
73305;PMS5003;61530;51.158;0.880;2022-11-20T04:28:22;46;41;22
73305;PMS5003;61530;51.158;0.880;2022-11-20T04:29:22;42;37;22
73305;PMS5003;61530;51.158;0.880;2022-11-20T04:30:28;36;31;22
73305;PMS5003;61530;51.158;0.880;2022-11-20T04:31:29;32;31;21
73305;PMS5003;61530;51.158;0.880;2022-11-20T04:32:34;46;39;23
73305;PMS5003;61530;51.158;0.880;2022-11-20T04:33:40;37;31;20
73305;PMS5003;61530;51.158;0.880;2022-11-20T04:34:46;32;30;20
73305;PMS5003;61530;51.158;0.880;2022-11-20T04:35:46;37;37;19
73305;PMS5003;61530;51.158;0.880;2022-11-20T04:36:52;30;30;21
73305;PMS5003;61530;51.158;0.880;2022-11-20T04:37:52;32;32;22
73305;PMS5003;61530;51.158;0.880;2022-11-20T04:38:59;34;33;21
73305;PMS5003;61530;51.158;0.880;2022-11-20T04:40:04;37;34;23
73305;PMS5003;61530;51.158;0.880;2022-11-20T04:41:13;39;37;21
73305;PMS5003;61530;51.158;0.880;2022-11-20T04:42:10;34;31;21
73305;PMS5003;61530;51.158;0.880;2022-11-20T04:43:16;37;37;22
73305;PMS5003;61530;51.158;0.880;2022-11-20T04:44:16;43;39;22
73305;PMS5003;61530;51.158;0.880;2022-11-20T04:45:22;41;37;19
73305;PMS5003;61530;51.158;0.880;2022-11-20T04:46:28;31;30;23
73305;PMS5003;61530;51.158;0.880;2022-11-20T04:47:34;37;33;20
73305;PMS5003;61530;51.158;0.880;2022-11-20T04:48:34;40;36;20
73305;PMS5003;61530;51.158;0.880;2022-11-20T04:49:40;33;32;21
73305;PMS5003;61530;51.158;0.880;2022-11-20T04:50:40;36;34;21
73305;PMS5003;61530;51.158;0.880;2022-11-20T04:51:46;33;28;21
73305;PMS5003;61530;51.158;0.880;2022-11-20T04:52:52;30;28;20
73305;PMS5003;61530;51.158;0.880;2022-11-20T04:53:58;36;33;20
73305;PMS5003;61530;51.158;0.880;2022-11-20T04:54:58;31;30;19
73305;PMS5003;61530;51.158;0.880;2022-11-20T04:56:05;37;34;20
73305;PMS5003;61530;51.158;0.880;2022-11-20T04:57:04;38;33;22
73305;PMS5003;61530;51.158;0.880;2022-11-20T04:58:10;37;30;22
73305;PMS5003;61530;51.158;0.880;2022-11-20T04:59:16;39;32;21
73305;PMS5003;61530;51.158;0.880;2022-11-20T05:00:22;37;33;19
73305;PMS5003;61530;51.158;0.880;2022-11-20T05:01:23;40;33;21
73305;PMS5003;61530;51.158;0.880;2022-11-20T05:02:28;40;37;23
73305;PMS5003;61530;51.158;0.880;2022-11-20T05:03:28;41;33;19
73305;PMS5003;61530;51.158;0.880;2022-11-20T05:04:34;40;37;21
73305;PMS5003;61530;51.158;0.880;2022-11-20T05:05:40;34;32;19
73305;PMS5003;61530;51.158;0.880;2022-11-20T05:06:46;31;29;20
73305;PMS5003;61530;51.158;0.880;2022-11-20T05:07:46;31;27;19
73305;PMS5003;61530;51.158;0.880;2022-11-20T05:08:52;36;31;16
73305;PMS5003;61530;51.158;0.880;2022-11-20T05:09:52;31;29;20
73305;PMS5003;61530;51.158;0.880;2022-11-20T05:11:00;33;26;19
73305;PMS5003;61530;51.158;0.880;2022-11-20T05:12:06;28;25;17
73305;PMS5003;61530;51.158;0.880;2022-11-20T05:13:10;25;25;19
73305;PMS5003;61530;51.158;0.880;2022-11-20T05:14:10;30;30;19
73305;PMS5003;61530;51.158;0.880;2022-11-20T05:15:16;38;35;19
73305;PMS5003;61530;51.158;0.880;2022-11-20T05:16:16;34;30;19
73305;PMS5003;61530;51.158;0.880;2022-11-20T05:17:22;34;31;21
73305;PMS5003;61530;51.158;0.880;2022-11-20T05:18:28;29;28;21
73305;PMS5003;61530;51.158;0.880;2022-11-20T05:19:34;37;31;20
73305;PMS5003;61530;51.158;0.880;2022-11-20T05:20:34;32;32;19
73305;PMS5003;61530;51.158;0.880;2022-11-20T05:21:40;29;28;20
73305;PMS5003;61530;51.158;0.880;2022-11-20T05:22:40;33;30;21
73305;PMS5003;61530;51.158;0.880;2022-11-20T05:23:46;30;29;18
73305;PMS5003;61530;51.158;0.880;2022-11-20T05:24:52;38;34;18
73305;PMS5003;61530;51.158;0.880;2022-11-20T05:25:58;32;29;20
73305;PMS5003;61530;51.158;0.880;2022-11-20T05:26:58;39;35;21
73305;PMS5003;61530;51.158;0.880;2022-11-20T05:28:04;29;28;17
73305;PMS5003;61530;51.158;0.880;2022-11-20T05:29:04;31;26;19
73305;PMS5003;61530;51.158;0.880;2022-11-20T05:30:11;27;25;17
73305;PMS5003;61530;51.158;0.880;2022-11-20T05:31:18;33;30;17
73305;PMS5003;61530;51.158;0.880;2022-11-20T05:32:22;37;31;19
73305;PMS5003;61530;51.158;0.880;2022-11-20T05:33:22;27;25;16
73305;PMS5003;61530;51.158;0.880;2022-11-20T05:34:28;26;25;17
73305;PMS5003;61530;51.158;0.880;2022-11-20T05:35:28;27;26;17
73305;PMS5003;61530;51.158;0.880;2022-11-20T05:36:34;29;26;19
73305;PMS5003;61530;51.158;0.880;2022-11-20T05:37:40;29;28;16
73305;PMS5003;61530;51.158;0.880;2022-11-20T05:38:46;31;26;17
73305;PMS5003;61530;51.158;0.880;2022-11-20T05:39:46;24;24;15
73305;PMS5003;61530;51.158;0.880;2022-11-20T05:40:52;31;28;17
73305;PMS5003;61530;51.158;0.880;2022-11-20T05:41:52;25;24;16
73305;PMS5003;61530;51.158;0.880;2022-11-20T05:42:59;25;24;16
73305;PMS5003;61530;51.158;0.880;2022-11-20T05:44:04;27;25;16
73305;PMS5003;61530;51.158;0.880;2022-11-20T05:45:10;26;26;16
73305;PMS5003;61530;51.158;0.880;2022-11-20T05:46:12;28;28;16
73305;PMS5003;61530;51.158;0.880;2022-11-20T05:47:16;26;24;17
73305;PMS5003;61530;51.158;0.880;2022-11-20T05:48:16;23;21;17
73305;PMS5003;61530;51.158;0.880;2022-11-20T05:49:22;26;23;15
73305;PMS5003;61530;51.158;0.880;2022-11-20T05:50:28;22;22;14
73305;PMS5003;61530;51.158;0.880;2022-11-20T05:51:34;27;24;15
73305;PMS5003;61530;51.158;0.880;2022-11-20T05:52:34;33;31;14
73305;PMS5003;61530;51.158;0.880;2022-11-20T05:53:40;31;26;13
73305;PMS5003;61530;51.158;0.880;2022-11-20T05:54:40;28;24;16
73305;PMS5003;61530;51.158;0.880;2022-11-20T05:55:46;31;28;15
73305;PMS5003;61530;51.158;0.880;2022-11-20T05:56:52;23;23;13
73305;PMS5003;61530;51.158;0.880;2022-11-20T05:57:58;23;21;13
73305;PMS5003;61530;51.158;0.880;2022-11-20T05:58:58;27;25;14
73305;PMS5003;61530;51.158;0.880;2022-11-20T06:00:04;26;25;15
73305;PMS5003;61530;51.158;0.880;2022-11-20T06:01:05;26;23;14
73305;PMS5003;61530;51.158;0.880;2022-11-20T06:02:10;28;23;15
73305;PMS5003;61530;51.158;0.880;2022-11-20T06:03:10;26;25;13
73305;PMS5003;61530;51.158;0.880;2022-11-20T06:04:16;28;25;14
73305;PMS5003;61530;51.158;0.880;2022-11-20T06:05:16;26;25;14
73305;PMS5003;61530;51.158;0.880;2022-11-20T06:06:17;23;22;13
73305;PMS5003;61530;51.158;0.880;2022-11-20T06:07:22;30;26;14
73305;PMS5003;61530;51.158;0.880;2022-11-20T06:08:22;15;15;12
73305;PMS5003;61530;51.158;0.880;2022-11-20T06:09:28;21;21;14
73305;PMS5003;61530;51.158;0.880;2022-11-20T06:10:28;19;19;13
73305;PMS5003;61530;51.158;0.880;2022-11-20T06:11:34;25;24;14
73305;PMS5003;61530;51.158;0.880;2022-11-20T06:12:34;26;24;13
73305;PMS5003;61530;51.158;0.880;2022-11-20T06:13:40;26;25;14
73305;PMS5003;61530;51.158;0.880;2022-11-20T06:14:40;28;28;14
73305;PMS5003;61530;51.158;0.880;2022-11-20T06:15:48;24;20;14
73305;PMS5003;61530;51.158;0.880;2022-11-20T06:16:46;21;20;14
73305;PMS5003;61530;51.158;0.880;2022-11-20T06:17:53;24;22;12
73305;PMS5003;61530;51.158;0.880;2022-11-20T06:18:52;21;21;13
73305;PMS5003;61530;51.158;0.880;2022-11-20T06:19:58;26;20;13
73305;PMS5003;61530;51.158;0.880;2022-11-20T06:21:00;22;19;12
73305;PMS5003;61530;51.158;0.880;2022-11-20T06:22:04;25;25;14
73305;PMS5003;61530;51.158;0.880;2022-11-20T06:23:04;24;24;13
73305;PMS5003;61530;51.158;0.880;2022-11-20T06:24:10;21;19;12
73305;PMS5003;61530;51.158;0.880;2022-11-20T06:25:10;19;17;13
73305;PMS5003;61530;51.158;0.880;2022-11-20T06:26:11;23;21;12
73305;PMS5003;61530;51.158;0.880;2022-11-20T06:27:16;24;23;13
73305;PMS5003;61530;51.158;0.880;2022-11-20T06:28:16;21;21;12
73305;PMS5003;61530;51.158;0.880;2022-11-20T06:29:23;21;20;14
73305;PMS5003;61530;51.158;0.880;2022-11-20T06:30:27;19;19;13
73305;PMS5003;61530;51.158;0.880;2022-11-20T06:31:28;17;17;12
73305;PMS5003;61530;51.158;0.880;2022-11-20T06:32:28;20;20;11
73305;PMS5003;61530;51.158;0.880;2022-11-20T06:33:34;22;22;12
73305;PMS5003;61530;51.158;0.880;2022-11-20T06:34:34;19;19;10
73305;PMS5003;61530;51.158;0.880;2022-11-20T06:35:40;16;16;12
73305;PMS5003;61530;51.158;0.880;2022-11-20T06:36:40;19;19;12
73305;PMS5003;61530;51.158;0.880;2022-11-20T06:37:46;17;16;12
73305;PMS5003;61530;51.158;0.880;2022-11-20T06:38:47;20;20;11
73305;PMS5003;61530;51.158;0.880;2022-11-20T06:39:52;19;17;12
73305;PMS5003;61530;51.158;0.880;2022-11-20T06:40:52;19;19;12
73305;PMS5003;61530;51.158;0.880;2022-11-20T06:41:58;23;23;13
73305;PMS5003;61530;51.158;0.880;2022-11-20T06:42:58;21;21;13
73305;PMS5003;61530;51.158;0.880;2022-11-20T06:44:04;20;19;12
73305;PMS5003;61530;51.158;0.880;2022-11-20T06:45:04;22;20;14
73305;PMS5003;61530;51.158;0.880;2022-11-20T06:46:04;27;25;12
73305;PMS5003;61530;51.158;0.880;2022-11-20T06:47:10;21;20;12
73305;PMS5003;61530;51.158;0.880;2022-11-20T06:48:11;18;16;11